Time;durP1;ratioP1;P1;durP2;ratioP2;P2;SDS_P1;SDS_P2;PMS_P1;PMS_P2;Temp;Humidity;BMP_temperature;BMP_pressure;BME280_temperature;BME280_humidity;BME280_pressure;Samples;Min_cycle;Max_cycle;Signal;HPM_P1;HPM_P2
2023/02/23 00:06:36;;;;;;;51.00;18.50;;;;;;;-0.02;77.69;98730.28;435418;1250;108322;-41
2023/02/23 00:16:44;;;;;;;29.80;14.60;;;;;;;-0.08;77.62;98728.52;435458;1253;99254;-40
2023/02/23 00:26:51;;;;;;;29.90;15.10;;;;;;;-0.07;77.40;98733.25;435354;1254;111266;-40
2023/02/23 00:36:58;;;;;;;39.40;16.40;;;;;;;-0.08;77.55;98736.77;435406;1254;107471;-40
2023/02/23 00:47:06;;;;;;;36.30;16.70;;;;;;;-0.17;77.47;98740.39;435438;1254;99221;-40
2023/02/23 00:57:12;;;;;;;38.00;15.50;;;;;;;-0.26;77.67;98741.33;435528;1250;114027;-40
2023/02/23 01:07:19;;;;;;;25.20;13.10;;;;;;;-0.35;77.57;98734.81;435434;1250;107160;-40
2023/02/23 01:17:29;;;;;;;27.00;11.80;;;;;;;-0.36;77.75;98725.36;435325;1251;99230;-41
2023/02/23 01:37:43;;;;;;;41.40;17.10;;;;;;;-0.43;77.98;98717.23;435503;1254;108820;-38
2023/02/23 01:47:50;;;;;;;44.10;18.20;;;;;;;-0.53;77.99;98713.44;435511;1250;99239;-39
2023/02/23 02:08:05;;;;;;;23.00;11.50;;;;;;;-0.58;77.87;98690.02;435450;1250;107939;-40
2023/02/23 02:18:10;;;;;;;;;;;;;;;-0.57;77.96;98680.44;436490;1253;99223;-37
2023/02/23 02:28:30;;;;;;;31.90;15.40;;;;;;;-0.68;78.10;98670.13;436733;1251;107839;-41
2023/02/23 02:38:39;;;;;;;32.00;16.00;;;;;;;-0.83;78.17;98661.30;437042;1251;97978;-40
2023/02/23 02:48:46;;;;;;;37.10;17.70;;;;;;;-0.96;78.23;98661.58;437099;1247;110738;-39
2023/02/23 02:58:53;;;;;;;33.10;17.00;;;;;;;-0.98;78.31;98658.95;436888;1250;107145;-40
2023/02/23 04:22:07;;;;;;;30.10;15.90;;;;;;;-1.28;78.54;98641.65;437074;1250;112193;-41
2023/02/23 04:32:12;;;;;;;34.10;15.60;;;;;;;-1.22;78.39;98633.45;437080;1247;107213;-40
2023/02/23 04:42:20;;;;;;;36.00;18.50;;;;;;;-1.11;78.47;98636.27;437246;1247;98937;-40
2023/02/23 04:52:27;;;;;;;50.90;22.50;;;;;;;-1.20;78.35;98636.28;437159;1251;107971;-40
2023/02/23 05:02:34;;;;;;;46.80;21.20;;;;;;;-1.35;78.16;98626.93;437258;1252;98818;-39
2023/02/23 05:12:42;;;;;;;37.70;18.20;;;;;;;-1.53;78.39;98633.05;437051;1250;112045;-40
2023/02/23 05:22:49;;;;;;;35.70;16.70;;;;;;;-1.62;78.53;98628.89;437257;1247;108129;-40
2023/02/23 05:32:57;;;;;;;31.30;16.80;;;;;;;-1.64;78.48;98627.41;437146;1252;99252;-40
2023/02/23 05:43:04;;;;;;;35.70;20.90;;;;;;;-1.63;78.60;98630.05;437193;1251;112015;-41
2023/02/23 05:53:11;;;;;;;33.40;18.40;;;;;;;-1.45;78.70;98631.63;437089;1252;106909;-40
2023/02/23 06:03:18;;;;;;;57.40;26.40;;;;;;;-1.19;78.82;98628.79;437257;1247;98825;-40
2023/02/23 06:13:27;;;;;;;45.60;21.70;;;;;;;-1.05;78.88;98634.08;437399;1250;107407;-40
2023/02/23 06:23:35;;;;;;;43.50;19.40;;;;;;;-0.93;78.88;98631.28;437229;1248;97966;-40
2023/02/23 06:33:42;;;;;;;35.70;17.90;;;;;;;-0.79;78.95;98635.02;437322;1250;111812;-40
2023/02/23 06:43:49;;;;;;;38.90;20.20;;;;;;;-0.56;78.87;98635.84;437216;1252;107045;-40
2023/02/23 06:53:57;;;;;;;67.50;28.70;;;;;;;-0.45;78.67;98637.11;437362;1252;117693;-40
2023/02/23 07:04:04;;;;;;;25.80;14.90;;;;;;;-0.26;78.60;98636.68;437218;1247;108371;-41
2023/02/23 07:14:10;;;;;;;28.50;14.80;;;;;;;0.12;78.55;98638.98;437260;1247;99307;-40
2023/02/23 07:34:35;;;;;;;46.30;20.80;;;;;;;0.79;78.44;98632.67;437319;1252;107901;-40
2023/02/23 07:44:41;;;;;;;44.00;22.00;;;;;;;1.13;78.72;98628.57;437381;1248;99215;-41
2023/02/23 07:54:47;;;;;;;47.60;22.70;;;;;;;1.57;78.39;98623.66;437259;1254;112680;-40
2023/02/23 08:04:54;;;;;;;57.20;23.90;;;;;;;1.96;78.27;98619.18;437322;1247;107397;-40
2023/02/23 08:15:02;;;;;;;43.90;21.20;;;;;;;2.52;78.05;98617.20;437196;1252;99147;-40
2023/02/23 08:25:10;;;;;;;38.80;19.30;;;;;;;2.82;77.78;98611.63;437294;1252;108541;-40
2023/02/23 08:45:24;;;;;;;45.30;22.70;;;;;;;3.23;76.78;98608.26;437354;1247;112346;-40
2023/02/23 09:05:42;;;;;;;38.70;20.00;;;;;;;3.97;76.28;98595.70;437349;1247;99208;-40
2023/02/23 09:15:48;;;;;;;;;;;;;;;4.24;75.84;98583.89;437389;1253;112163;-39
2023/02/23 09:25:55;;;;;;;40.00;18.50;;;;;;;4.60;75.73;98582.48;437254;1253;107334;-40
2023/02/23 09:36:06;;;;;;;39.30;17.00;;;;;;;4.95;74.98;98577.23;437275;1247;98484;-40
2023/02/23 09:56:21;;;;;;;24.40;13.30;;;;;;;5.67;73.95;98572.05;437278;1251;98805;-40
2023/02/23 10:06:29;;;;;;;24.10;12.90;;;;;;;6.12;73.05;98569.65;437298;1252;111233;-40
2023/02/23 10:16:36;;;;;;;35.90;16.90;;;;;;;6.40;72.97;98569.71;437157;1252;108404;-39
2023/02/23 10:26:45;;;;;;;49.60;17.00;;;;;;;6.62;72.63;98562.98;437164;1251;99308;-40
2023/02/23 10:36:57;;;;;;;25.70;14.90;;;;;;;6.72;72.16;98552.15;437266;1252;107676;-39
2023/02/23 10:47:09;;;;;;;26.00;15.40;;;;;;;6.86;71.91;98547.94;437029;1251;99230;-40
2023/02/23 10:57:19;;;;;;;32.50;15.80;;;;;;;7.22;70.77;98536.14;437151;1251;111051;-40
2023/02/23 11:17:36;;;;;;;28.90;15.20;;;;;;;7.85;69.55;98494.27;437038;1250;99296;-41
2023/02/23 11:27:46;;;;;;;28.90;15.00;;;;;;;8.10;69.30;98484.02;436952;1250;112106;-40
2023/02/23 11:37:51;;;;;;;;;;;;;;;8.23;68.70;98470.23;436992;1251;107009;-39
2023/02/23 11:48:05;;;;;;;30.60;15.90;;;;;;;8.16;67.94;98458.42;436980;1253;97928;-39
2023/02/23 11:58:18;;;;;;;28.10;15.90;;;;;;;8.14;67.55;98448.77;436924;1248;111736;-40
2023/02/23 12:08:26;;;;;;;29.70;16.20;;;;;;;8.24;67.19;98438.59;436955;1250;106903;-39
2023/02/23 12:18:37;;;;;;;32.00;16.40;;;;;;;8.20;66.68;98427.51;437262;1251;97973;-41
2023/02/23 12:28:46;;;;;;;29.90;15.60;;;;;;;8.44;66.83;98418.16;437018;1260;110082;-40
2023/02/23 12:38:56;;;;;;;30.30;15.70;;;;;;;8.50;66.66;98412.48;436869;1248;106253;-39
2023/02/23 12:59:39;;;;;;;30.80;14.90;;;;;;;8.81;65.84;98389.78;437100;1248;111295;-39
2023/02/23 13:09:45;;;;;;;32.70;15.80;;;;;;;9.03;64.92;98375.05;436779;1248;107969;-43
2023/02/23 13:19:57;;;;;;;31.30;15.20;;;;;;;9.03;64.86;98363.39;436835;1248;99227;-40
2023/02/23 13:30:04;;;;;;;24.00;14.30;;;;;;;9.04;65.15;98354.81;436939;1248;110382;-40
2023/02/23 13:40:16;;;;;;;26.80;14.90;;;;;;;9.04;65.66;98347.60;436912;1251;108004;-40
2023/02/23 13:50:29;;;;;;;30.00;14.60;;;;;;;8.98;64.93;98331.08;436713;1248;99326;-41
2023/02/23 14:00:37;;;;;;;33.50;15.00;;;;;;;8.97;65.07;98322.13;436564;1248;111879;-41
2023/02/23 14:10:45;;;;;;;38.20;17.70;;;;;;;8.99;65.30;98307.95;436500;1253;108028;-39
2023/02/23 14:20:56;;;;;;;37.80;17.30;;;;;;;9.05;65.62;98306.59;436615;1252;99612;-45
2023/02/23 14:31:01;;;;;;;29.50;14.40;;;;;;;9.14;65.63;98298.02;436668;1251;110951;-40
2023/02/23 14:41:11;;;;;;;27.60;14.10;;;;;;;9.18;65.99;98292.32;436532;1260;108969;-40
2023/02/23 14:51:24;;;;;;;28.40;15.60;;;;;;;9.15;65.65;98282.28;436461;1248;99197;-40
2023/02/23 15:01:38;;;;;;;28.60;16.80;;;;;;;9.05;66.21;98275.89;436542;1247;112913;-40
2023/02/23 15:11:48;;;;;;;35.10;18.50;;;;;;;8.94;66.69;98270.74;436579;1247;107575;-40
2023/02/23 15:21:59;;;;;;;33.60;18.60;;;;;;;8.81;67.19;98260.02;436458;1251;98775;-40
2023/02/23 15:32:16;;;;;;;37.80;18.30;;;;;;;8.70;67.43;98255.70;435970;1251;586492;-40
2023/02/23 16:02:39;;;;;;;50.60;26.30;;;;;;;8.08;68.57;98237.84;436509;1251;107413;-41
2023/02/23 16:12:50;;;;;;;51.30;25.60;;;;;;;7.79;68.83;98229.16;436603;1248;98045;-39
2023/02/23 16:22:58;;;;;;;61.60;31.50;;;;;;;7.52;69.15;98218.96;436411;1248;111213;-41
2023/02/23 16:33:04;;;;;;;69.80;34.90;;;;;;;7.34;69.40;98223.61;436571;1247;107874;-40
2023/02/23 16:43:11;;;;;;;68.40;34.40;;;;;;;7.23;69.69;98228.91;436564;1251;99056;-39
2023/02/23 16:53:18;;;;;;;69.10;36.70;;;;;;;7.09;70.00;98221.52;436455;1251;107915;-40
2023/02/23 17:03:27;;;;;;;79.70;38.80;;;;;;;6.91;70.34;98222.98;436400;1251;98807;-40
2023/02/23 17:13:35;;;;;;;79.90;43.90;;;;;;;6.73;70.58;98214.19;436409;1251;111776;-40
2023/02/23 17:33:49;;;;;;;71.40;32.50;;;;;;;6.57;70.88;98212.82;436366;1252;98011;-41
2023/02/23 17:43:57;;;;;;;71.10;37.30;;;;;;;6.61;71.05;98206.89;436385;1252;107322;-40
2023/02/23 17:54:03;;;;;;;90.30;44.80;;;;;;;6.53;71.30;98201.62;436486;1251;98077;-40
2023/02/23 18:04:10;;;;;;;91.50;46.10;;;;;;;6.30;71.40;98191.20;436387;1251;111982;-41
2023/02/23 18:14:17;;;;;;;107.90;57.40;;;;;;;6.05;71.65;98180.54;436529;1247;107729;-39
2023/02/23 18:24:24;;;;;;;83.10;44.70;;;;;;;5.87;71.81;98172.63;436484;1251;98113;-40
2023/02/23 18:34:29;;;;;;;97.30;51.00;;;;;;;5.76;72.16;98164.22;436420;1247;108488;-41
2023/02/23 18:44:36;;;;;;;107.00;52.60;;;;;;;5.65;72.41;98154.48;436484;1247;99243;-40
2023/02/23 18:54:44;;;;;;;140.30;63.90;;;;;;;5.48;72.78;98154.65;436359;1251;112503;-39
2023/02/23 19:04:51;;;;;;;135.10;69.10;;;;;;;5.27;73.04;98146.88;436369;1249;108166;-39
2023/02/23 19:14:59;;;;;;;98.40;54.20;;;;;;;5.15;73.48;98144.69;436467;1251;98825;-40
2023/02/23 19:35:16;;;;;;;108.80;54.20;;;;;;;5.12;74.25;98126.71;436372;1251;98814;-40
2023/02/23 19:45:24;;;;;;;135.80;63.60;;;;;;;5.14;74.60;98125.21;436529;1250;111850;-39
2023/02/23 19:55:32;;;;;;;127.00;61.00;;;;;;;5.13;74.88;98118.09;436379;1247;108195;-39
2023/02/23 20:15:47;;;;;;;79.20;46.40;;;;;;;5.16;75.20;98111.94;436312;1248;111370;-39
2023/02/23 20:25:56;;;;;;;91.70;46.90;;;;;;;5.20;75.40;98105.84;436279;1250;108245;-39
2023/02/23 20:36:03;;;;;;;98.80;50.30;;;;;;;5.35;75.66;98095.45;436540;1251;98873;-41
2023/02/23 20:46:12;;;;;;;128.90;60.40;;;;;;;5.55;75.97;98088.54;436346;1251;108778;-40
2023/02/23 20:56:22;;;;;;;125.60;59.70;;;;;;;5.62;75.99;98081.71;436520;1247;99074;-40
2023/02/23 21:16:40;;;;;;;90.30;47.10;;;;;;;5.65;76.21;98067.45;436621;1251;108432;-41
2023/02/23 21:26:46;;;;;;;75.90;39.50;;;;;;;5.81;76.43;98055.00;436590;1251;98819;-41
2023/02/23 21:47:03;;;;;;;76.00;38.60;;;;;;;6.22;76.90;98041.55;436635;1252;98854;-41
2023/02/23 21:57:10;;;;;;;71.90;39.50;;;;;;;6.30;77.10;98035.56;436474;1249;111884;-41
2023/02/23 22:07:20;;;;;;;70.60;36.70;;;;;;;6.32;77.16;98030.69;436625;1249;108122;-42
2023/02/23 22:17:28;;;;;;;61.60;31.60;;;;;;;6.36;77.23;98018.21;436441;1252;99223;-40
2023/02/23 22:27:36;;;;;;;55.60;32.50;;;;;;;6.47;77.43;98005.66;436570;1251;107138;-41
2023/02/23 22:37:43;;;;;;;61.10;32.70;;;;;;;6.52;77.58;97996.77;436136;1247;100834;-39
2023/02/23 22:47:49;;;;;;;71.20;36.30;;;;;;;6.51;77.75;97983.92;436749;1251;112591;-40
2023/02/23 22:58:00;;;;;;;67.00;33.60;;;;;;;6.43;77.83;97969.67;436569;1251;105944;-40
2023/02/23 23:08:08;;;;;;;44.50;25.30;;;;;;;6.37;77.84;97961.84;436538;1251;97996;-41
2023/02/23 23:28:23;;;;;;;44.70;24.90;;;;;;;6.39;78.06;97941.80;436541;1251;98831;-40
2023/02/23 23:58:45;;;;;;;51.00;26.40;;;;;;;6.30;78.53;97916.88;436666;1247;99215;-41
